createdAt,value
2018-10-11T00:01:15.198Z,78.52
2018-10-11T00:03:54.097Z,78.65
2018-10-11T00:06:32.274Z,78.27
2018-10-11T00:09:15.567Z,78.62
2018-10-11T00:11:55.725Z,78.87
2018-10-11T00:14:36.347Z,79.22
2018-10-11T00:17:15.492Z,78.85
2018-10-11T00:19:54.142Z,78.94
2018-10-11T00:22:32.838Z,79.53
2018-10-11T00:25:14.016Z,79.25
2018-10-11T00:27:51.922Z,79.15
2018-10-11T00:30:29.387Z,79.25
2018-10-11T00:33:07.755Z,79.28
2018-10-11T00:35:43.538Z,79.34
2018-10-11T00:41:02.839Z,79.36
2018-10-11T00:43:41.370Z,79.41
2018-10-11T00:46:19.153Z,79.54
2018-10-11T00:48:57.841Z,79.37
2018-10-11T00:51:27.459Z,79.42
2018-10-11T00:53:56.993Z,79.13
2018-10-11T00:56:26.555Z,79.84
2018-10-11T00:58:56.116Z,79.42
2018-10-11T01:01:25.671Z,80.02
2018-10-11T01:03:55.303Z,79.60
2018-10-11T01:06:24.856Z,80.01
2018-10-11T01:08:54.437Z,79.68
2018-10-11T01:11:24.078Z,79.96
2018-10-11T01:13:53.879Z,80.01
2018-10-11T01:16:23.710Z,79.94
2018-10-11T01:18:53.565Z,80.18
2018-10-11T01:21:23.257Z,79.75
2018-10-11T01:23:53.084Z,80.42
2018-10-11T01:26:22.754Z,79.94
2018-10-11T01:28:52.431Z,79.99
2018-10-11T01:31:24.027Z,79.85
2018-10-11T01:33:54.004Z,79.99
2018-10-11T01:36:23.630Z,80.04
2018-10-11T01:38:54.349Z,80.41
2018-10-11T01:41:24.126Z,80.30
2018-10-11T01:43:53.883Z,80.12
2018-10-11T01:46:23.535Z,80.87
2018-10-11T01:48:54.939Z,81.06
2018-10-11T01:51:24.683Z,80.76
2018-10-11T01:53:54.542Z,80.81
2018-10-11T01:56:24.259Z,80.26
2018-10-11T01:58:54.100Z,80.47
2018-10-11T02:01:23.891Z,80.77
2018-10-11T02:03:53.724Z,81.07
2018-10-11T02:06:23.570Z,80.23
2018-10-11T02:08:53.433Z,80.27
2018-10-11T02:11:23.238Z,80.48
2018-10-11T02:13:53.123Z,80.33
2018-10-11T02:16:22.831Z,80.73
2018-10-11T02:18:52.645Z,80.58
2018-10-11T02:21:22.387Z,80.91
2018-10-11T02:23:52.056Z,81.14
2018-10-11T02:26:21.917Z,80.70
2018-10-11T02:28:51.618Z,80.83
2018-10-11T02:31:21.325Z,80.38
2018-10-11T02:33:51.180Z,80.66
2018-10-11T02:36:20.826Z,80.78
2018-10-11T02:38:50.644Z,80.87
2018-10-11T02:41:20.449Z,80.94
2018-10-11T02:43:50.261Z,80.91
2018-10-11T02:46:20.067Z,81.21
2018-10-11T02:48:49.861Z,80.50
2018-10-11T02:51:19.555Z,81.10
2018-10-11T02:53:49.125Z,80.75
2018-10-11T02:56:22.444Z,81.20
2018-10-11T02:59:08.615Z,81.04
2018-10-11T03:01:38.229Z,81.17
2018-10-11T03:04:07.846Z,81.48
2018-10-11T03:06:38.681Z,81.18
2018-10-11T03:09:09.163Z,80.94
2018-10-11T03:11:43.109Z,81.32
2018-10-11T03:14:12.870Z,81.34
2018-10-11T03:16:42.433Z,81.35
2018-10-11T03:19:11.985Z,80.83
2018-10-11T03:21:41.669Z,81.17
2018-10-11T03:24:11.368Z,81.38
2018-10-11T03:26:40.886Z,81.63
2018-10-11T03:29:10.454Z,81.91
2018-10-11T03:31:40.047Z,81.88
2018-10-11T03:34:09.585Z,81.64
2018-10-11T03:36:39.118Z,81.58
2018-10-11T03:39:08.818Z,82.21
2018-10-11T03:41:38.366Z,81.49
2018-10-11T03:44:07.917Z,81.87
2018-10-11T03:46:37.563Z,81.56
2018-10-11T03:49:07.522Z,81.72
2018-10-11T03:51:37.070Z,81.64
2018-10-11T03:54:06.624Z,82.10
2018-10-11T03:56:36.193Z,81.70
2018-10-11T03:59:07.278Z,81.56
2018-10-11T04:01:37.232Z,81.33
2018-10-11T04:04:06.813Z,81.78
2018-10-11T04:06:36.362Z,81.67
2018-10-11T04:09:07.447Z,81.78
2018-10-11T04:11:36.987Z,82.00
2018-10-11T04:14:06.550Z,82.29
2018-10-11T04:16:36.100Z,81.87
2018-10-11T04:19:06.674Z,81.43
2018-10-11T04:21:36.364Z,81.36
2018-10-11T04:24:06.000Z,82.17
2018-10-11T04:26:35.604Z,81.78
2018-10-11T04:29:06.355Z,82.00
2018-10-11T04:31:35.994Z,81.29
2018-10-11T04:34:06.262Z,81.85
2018-10-11T04:36:35.883Z,81.87
2018-10-11T04:39:09.396Z,81.96
2018-10-11T04:41:39.047Z,82.27
2018-10-11T04:44:08.675Z,82.04
2018-10-11T04:47:08.796Z,81.60
2018-10-11T04:49:38.411Z,82.01
2018-10-11T04:52:07.988Z,81.99
2018-10-11T04:54:37.547Z,82.34
2018-10-11T04:57:07.589Z,81.59
2018-10-11T04:59:37.218Z,81.97
2018-10-11T05:02:06.776Z,81.77
2018-10-11T05:04:36.330Z,81.84
2018-10-11T05:07:06.638Z,82.20
2018-10-11T05:09:37.341Z,81.94
2018-10-11T05:12:07.473Z,82.01
2018-10-11T05:14:37.108Z,82.15
2018-10-11T05:17:06.698Z,82.43
2018-10-11T05:19:38.255Z,82.48
2018-10-11T05:22:07.889Z,81.93
2018-10-11T05:24:49.868Z,82.25
2018-10-11T05:27:19.407Z,81.89
2018-10-11T05:29:48.934Z,82.17
2018-10-11T05:32:18.686Z,81.95
2018-10-11T05:34:48.294Z,82.25
2018-10-11T05:37:17.834Z,82.19
2018-10-11T05:39:47.407Z,82.06
2018-10-11T05:42:17.018Z,81.93
2018-10-11T05:44:46.668Z,82.01
2018-10-11T05:47:16.272Z,82.28
2018-10-11T05:49:45.889Z,82.31
2018-10-11T05:52:15.630Z,81.90
2018-10-11T05:54:45.267Z,81.70
2018-10-11T05:57:14.831Z,82.04
2018-10-11T05:59:44.450Z,82.57
2018-10-11T06:02:14.116Z,82.29
2018-10-11T06:04:43.718Z,82.83
2018-10-11T06:07:13.304Z,82.45
2018-10-11T06:09:43.002Z,81.90
2018-10-11T06:12:12.606Z,82.44
2018-10-11T06:14:42.195Z,82.30
2018-10-11T06:17:11.748Z,82.72
2018-10-11T06:19:41.415Z,82.24
2018-10-11T06:22:10.980Z,82.52
2018-10-11T06:24:40.586Z,82.61
2018-10-11T06:27:10.386Z,82.41
2018-10-11T06:29:43.697Z,82.57
2018-10-11T06:32:14.733Z,82.09
2018-10-11T06:34:49.413Z,82.72
2018-10-11T06:37:18.988Z,82.46
2018-10-11T06:39:48.609Z,82.59
2018-10-11T06:42:18.284Z,82.02
2018-10-11T06:44:47.890Z,82.24
2018-10-11T06:47:19.335Z,82.30
2018-10-11T06:49:49.044Z,82.20
2018-10-11T06:52:18.592Z,82.11
2018-10-11T06:54:48.307Z,82.10
2018-10-11T06:57:17.896Z,81.71
2018-10-11T06:59:47.487Z,81.82
2018-10-11T07:02:17.015Z,81.74
2018-10-11T07:04:46.564Z,81.64
2018-10-11T07:07:16.380Z,81.40
2018-10-11T07:09:45.936Z,81.91
2018-10-11T07:12:15.498Z,81.35
2018-10-11T07:14:45.042Z,81.62
2018-10-11T07:17:14.707Z,81.49
2018-10-11T07:19:44.546Z,81.34
2018-10-11T07:22:14.082Z,81.47
2018-10-11T07:24:43.697Z,81.37
2018-10-11T07:27:13.251Z,81.44
2018-10-11T07:29:42.807Z,80.79
2018-10-11T07:32:12.382Z,80.73
2018-10-11T07:34:42.042Z,80.89
2018-10-11T07:37:11.519Z,80.87
2018-10-11T07:39:41.091Z,80.63
2018-10-11T07:42:10.686Z,80.46
2018-10-11T07:44:40.227Z,81.08
2018-10-11T07:47:09.923Z,79.91
2018-10-11T07:49:44.129Z,80.24
2018-10-11T07:54:37.328Z,79.93
2018-10-11T07:57:07.019Z,79.75
2018-10-11T07:59:37.302Z,79.63
2018-10-11T08:02:06.996Z,78.64
2018-10-11T08:04:36.583Z,79.25
2018-10-11T08:07:06.725Z,79.03
2018-10-11T08:09:36.347Z,78.37
2018-10-11T08:12:06.414Z,78.68
2018-10-11T08:14:35.874Z,78.45
2018-10-11T08:17:06.734Z,78.32
2018-10-11T08:19:36.245Z,78.16
2018-10-11T08:22:06.441Z,77.50
2018-10-11T08:24:36.082Z,77.74
2018-10-11T08:27:06.746Z,76.87
2018-10-11T08:29:36.295Z,77.14
2018-10-11T08:32:06.697Z,76.39
2018-10-11T08:34:36.295Z,76.07
2018-10-11T08:37:06.259Z,75.79
2018-10-11T08:39:35.837Z,75.71
2018-10-11T08:42:06.325Z,76.06
2018-10-11T08:44:35.854Z,74.95
2018-10-11T08:47:05.399Z,75.52
2018-10-11T08:49:34.934Z,75.37
2018-10-11T08:52:04.532Z,74.42
2018-10-11T08:54:39.075Z,74.04
2018-10-11T08:57:08.697Z,73.45
2018-10-11T08:59:38.293Z,73.60
2018-10-11T09:02:07.907Z,72.96
2018-10-11T09:04:37.437Z,72.65
2018-10-11T09:07:07.109Z,72.41
2018-10-11T09:09:36.765Z,72.60
2018-10-11T09:12:06.541Z,72.46
2018-10-11T09:14:36.287Z,71.80
2018-10-11T09:17:06.596Z,70.92
2018-10-11T09:22:13.522Z,70.32
2018-10-11T09:24:43.079Z,70.66
2018-10-11T09:27:12.644Z,70.58
2018-10-11T09:29:42.451Z,69.30
2018-10-11T09:32:12.013Z,69.50
2018-10-11T09:34:41.583Z,68.98
2018-10-11T09:37:11.165Z,68.64
2018-10-11T09:39:40.719Z,68.97
2018-10-11T09:42:10.307Z,68.46
2018-10-11T09:44:39.850Z,67.87
2018-10-11T09:47:09.415Z,67.29
2018-10-11T09:49:38.975Z,67.10
2018-10-11T09:52:08.647Z,67.75
2018-10-11T09:54:38.187Z,67.73
2018-10-11T09:57:35.009Z,67.12
2018-10-11T10:00:09.967Z,66.53
2018-10-11T10:02:39.544Z,66.64
2018-10-11T10:05:11.382Z,65.99
2018-10-11T10:07:40.917Z,66.19
2018-10-11T10:10:10.578Z,65.75
2018-10-11T10:12:40.130Z,65.55
2018-10-11T10:15:09.744Z,64.55
2018-10-11T10:17:39.318Z,64.40
2018-10-11T10:20:08.889Z,64.16
2018-10-11T10:22:38.436Z,63.99
2018-10-11T10:25:08.038Z,64.54
2018-10-11T10:27:37.631Z,64.09
2018-10-11T10:30:12.802Z,63.92
2018-10-11T10:32:42.349Z,63.80
2018-10-11T10:35:11.891Z,62.25
2018-10-11T10:37:41.458Z,61.72
2018-10-11T10:40:11.097Z,61.72
2018-10-11T10:42:40.657Z,61.36
2018-10-11T10:45:10.842Z,60.94
2018-10-11T10:47:40.406Z,60.21
2018-10-11T10:50:09.954Z,59.90
2018-10-11T10:52:39.495Z,60.15
2018-10-11T10:55:09.154Z,59.27
2018-10-11T10:57:53.134Z,59.18
2018-10-11T11:00:22.887Z,59.51
2018-10-11T11:02:52.433Z,58.78
2018-10-11T11:05:21.980Z,58.90
2018-10-11T11:07:51.563Z,58.91
2018-10-11T11:10:21.105Z,57.96
2018-10-11T11:12:53.413Z,57.95
2018-10-11T11:15:22.970Z,57.62
2018-10-11T11:17:52.513Z,57.27
2018-10-11T11:20:22.058Z,57.32
2018-10-11T11:22:51.574Z,57.51
2018-10-11T11:25:21.175Z,57.11
2018-10-11T11:27:50.758Z,57.18
2018-10-11T11:30:20.302Z,57.41
2018-10-11T11:32:49.837Z,56.41
2018-10-11T11:35:19.380Z,56.58
2018-10-11T11:37:48.915Z,55.70
2018-10-11T11:40:18.503Z,55.54
2018-10-11T11:42:48.130Z,56.09
2018-10-11T11:45:17.726Z,55.45
2018-10-11T11:47:47.347Z,55.23
2018-10-11T11:50:16.918Z,55.04
2018-10-11T11:52:49.060Z,55.54
2018-10-11T11:55:18.668Z,54.73
2018-10-11T11:57:48.251Z,54.43
2018-10-11T12:00:17.892Z,54.32
2018-10-11T12:02:47.526Z,54.08
2018-10-11T12:05:17.116Z,54.51
2018-10-11T12:07:46.641Z,53.92
2018-10-11T12:10:16.268Z,53.98
2018-10-11T12:13:02.379Z,53.68
2018-10-11T12:15:32.638Z,54.63
2018-10-11T12:18:03.700Z,54.88
2018-10-11T12:20:34.368Z,54.53
2018-10-11T12:23:05.032Z,53.24
2018-10-11T12:25:34.985Z,53.61
2018-10-11T12:28:04.636Z,53.45
2018-10-11T12:30:34.262Z,51.69
2018-10-11T12:33:03.890Z,51.66
2018-10-11T12:35:33.471Z,50.65
2018-10-11T12:38:03.021Z,50.43
2018-10-11T12:40:32.558Z,50.09
2018-10-11T12:43:02.104Z,48.80
2018-10-11T12:45:31.707Z,48.55
2018-10-11T12:48:01.382Z,46.67
2018-10-11T12:50:31.024Z,45.86
2018-10-11T12:53:00.695Z,43.34
2018-10-11T12:55:30.242Z,42.54
2018-10-11T12:57:59.778Z,42.39
2018-10-11T13:00:29.337Z,42.40
2018-10-11T13:02:59.040Z,42.71
2018-10-11T13:05:28.469Z,40.85
2018-10-11T13:07:58.020Z,39.53
2018-10-11T13:10:27.598Z,39.27
2018-10-11T13:12:58.415Z,37.25
2018-10-11T13:15:26.770Z,37.19
2018-10-11T13:17:56.402Z,37.23
2018-10-11T13:20:25.908Z,37.71
2018-10-11T13:22:55.558Z,36.39
2018-10-11T13:25:25.016Z,34.41
2018-10-11T13:27:54.574Z,34.57
2018-10-11T13:30:24.134Z,33.43
2018-10-11T13:32:55.951Z,32.83
2018-10-11T13:35:25.506Z,34.59
2018-10-11T13:37:55.062Z,35.54
2018-10-11T13:40:24.640Z,36.34
2018-10-11T13:42:54.161Z,35.61
2018-10-11T13:45:23.766Z,38.27
2018-10-11T13:47:53.304Z,38.81
2018-10-11T13:50:22.850Z,40.17
2018-10-11T13:52:52.427Z,40.93
2018-10-11T13:55:21.939Z,40.82
2018-10-11T13:57:51.485Z,42.19
2018-10-11T14:00:21.230Z,42.08
2018-10-11T14:02:50.788Z,43.47
2018-10-11T14:05:20.341Z,43.20
2018-10-11T14:07:49.956Z,43.61
2018-10-11T14:10:19.452Z,43.89
2018-10-11T14:12:48.976Z,44.50
2018-10-11T14:15:18.508Z,45.54
2018-10-11T14:17:48.250Z,44.77
2018-10-11T14:20:17.695Z,45.06
2018-10-11T14:22:47.231Z,46.41
2018-10-11T14:25:16.771Z,46.46
2018-10-11T14:27:46.347Z,45.92
2018-10-11T14:30:15.940Z,46.95
2018-10-11T14:32:45.467Z,46.39
2018-10-11T14:35:15.037Z,46.96
2018-10-11T14:37:44.591Z,46.94
2018-10-11T14:40:14.119Z,46.72
2018-10-11T14:42:43.653Z,46.40
2018-10-11T14:45:13.201Z,46.25
2018-10-11T14:47:42.745Z,46.13
2018-10-11T14:50:12.342Z,46.73
2018-10-11T14:52:41.874Z,46.12
2018-10-11T14:55:11.407Z,46.89
2018-10-11T14:57:40.993Z,47.22
2018-10-11T15:00:10.539Z,46.72
2018-10-11T15:02:40.156Z,47.59
2018-10-11T15:05:09.680Z,46.90
2018-10-11T15:07:39.221Z,47.62
2018-10-11T15:10:08.776Z,47.72
2018-10-11T15:12:38.368Z,47.54
2018-10-11T15:15:09.034Z,47.29
2018-10-11T15:17:38.588Z,47.79
2018-10-11T15:20:08.250Z,48.34
2018-10-11T15:22:37.808Z,48.72
2018-10-11T15:25:08.003Z,49.91
2018-10-11T15:27:37.595Z,50.12
2018-10-11T15:30:07.758Z,50.20
2018-10-11T15:32:37.321Z,50.31
2018-10-11T15:35:07.165Z,50.96
2018-10-11T15:37:37.006Z,51.42
2018-10-11T15:40:06.827Z,51.95
2018-10-11T15:42:36.799Z,52.05
2018-10-11T15:45:08.193Z,52.60
2018-10-11T15:47:38.045Z,52.72
2018-10-11T15:50:15.235Z,52.90
2018-10-11T15:52:51.437Z,53.25
2018-10-11T15:55:21.051Z,54.01
2018-10-11T15:57:50.685Z,53.74
2018-10-11T16:00:20.391Z,53.68
2018-10-11T16:02:50.015Z,54.62
2018-10-11T16:05:19.837Z,54.97
2018-10-11T16:07:49.570Z,54.87
2018-10-11T16:10:19.262Z,55.54
2018-10-11T16:12:49.679Z,55.84
2018-10-11T16:15:19.439Z,55.70
2018-10-11T16:17:49.507Z,56.04
2018-10-11T16:20:19.121Z,56.43
2018-10-11T16:22:48.775Z,56.66
2018-10-11T16:25:18.467Z,56.81
2018-10-11T16:27:48.877Z,57.25
2018-10-11T16:30:18.555Z,57.39
2018-10-11T16:32:48.164Z,58.02
2018-10-11T16:35:18.011Z,58.37
2018-10-11T16:37:47.663Z,58.38
2018-10-11T16:40:17.559Z,58.42
2018-10-11T16:42:47.462Z,59.07
2018-10-11T16:45:17.121Z,59.11
2018-10-11T16:47:46.882Z,59.48
2018-10-11T16:50:16.453Z,59.45
2018-10-11T16:52:46.107Z,60.27
2018-10-11T16:55:15.728Z,60.41
2018-10-11T16:57:45.364Z,60.48
2018-10-11T17:00:15.008Z,61.46
2018-10-11T17:02:44.808Z,60.77
2018-10-11T17:05:14.439Z,61.84
2018-10-11T17:07:44.066Z,61.98
2018-10-11T17:10:13.647Z,62.48
2018-10-11T17:12:43.292Z,62.61
2018-10-11T17:15:12.869Z,62.20
2018-10-11T17:17:42.633Z,62.52
2018-10-11T17:20:12.248Z,63.15
2018-10-11T17:22:41.815Z,62.85
2018-10-11T17:25:11.539Z,62.90
2018-10-11T17:27:41.201Z,63.38
2018-10-11T17:30:11.078Z,63.17
2018-10-11T17:32:40.788Z,63.23
2018-10-11T17:35:10.495Z,63.35
2018-10-11T17:37:40.134Z,63.30
2018-10-11T17:40:09.940Z,63.95
2018-10-11T17:42:39.563Z,63.67
2018-10-11T17:45:09.255Z,63.17
2018-10-11T17:47:38.814Z,63.12
2018-10-11T17:50:08.740Z,63.90
2018-10-11T17:52:38.694Z,63.22
2018-10-11T17:55:08.460Z,63.79
2018-10-11T17:57:38.063Z,63.20
2018-10-11T18:00:08.035Z,63.26
2018-10-11T18:02:37.780Z,63.24
2018-10-11T18:05:08.112Z,63.70
2018-10-11T18:07:37.799Z,64.04
2018-10-11T18:10:07.688Z,63.94
2018-10-11T18:12:37.343Z,63.42
2018-10-11T18:15:07.494Z,63.54
2018-10-11T18:17:37.607Z,62.82
2018-10-11T18:20:07.767Z,63.02
2018-10-11T18:22:37.504Z,62.84
2018-10-11T18:25:07.236Z,63.29
2018-10-11T18:27:36.972Z,62.85
2018-10-11T18:30:09.727Z,62.85
2018-10-11T18:32:39.492Z,62.58
2018-10-11T18:35:10.045Z,63.10
2018-10-11T18:37:39.704Z,62.72
2018-10-11T18:40:09.354Z,63.36
2018-10-11T18:42:39.019Z,63.17
2018-10-11T18:45:08.865Z,62.54
2018-10-11T18:47:38.480Z,62.69
2018-10-11T18:50:08.246Z,62.78
2018-10-11T18:52:37.954Z,62.55
2018-10-11T18:55:07.634Z,62.61
2018-10-11T18:57:37.355Z,62.76
2018-10-11T19:00:08.591Z,61.89
2018-10-11T19:02:38.248Z,62.51
2018-10-11T19:05:08.015Z,62.27
2018-10-11T19:07:37.736Z,62.06
2018-10-11T19:10:07.367Z,62.38
2018-10-11T19:12:37.024Z,62.26
2018-10-11T19:15:06.913Z,61.59
2018-10-11T19:17:36.752Z,62.05
2018-10-11T19:20:06.432Z,61.75
2018-10-11T19:22:36.017Z,62.18
2018-10-11T19:25:05.692Z,61.84
2018-10-11T19:27:35.362Z,61.81
2018-10-11T19:30:06.473Z,62.60
2018-10-11T19:32:36.147Z,62.53
2018-10-11T19:35:06.603Z,62.02
2018-10-11T19:37:36.281Z,62.12
2018-10-11T19:40:07.315Z,62.45
2018-10-11T19:42:36.986Z,63.12
2018-10-11T19:45:07.070Z,63.11
2018-10-11T19:47:36.712Z,62.63
2018-10-11T19:50:06.931Z,62.85
2018-10-11T19:52:36.801Z,62.60
2018-10-11T19:55:08.264Z,62.67
2018-10-11T19:57:37.957Z,63.76
2018-10-11T20:00:07.832Z,63.23
2018-10-11T20:02:38.136Z,63.89
2018-10-11T20:05:07.872Z,63.95
2018-10-11T20:07:37.552Z,64.07
2018-10-11T20:10:07.303Z,64.92
2018-10-11T20:12:36.971Z,64.86
2018-10-11T20:15:07.066Z,64.64
2018-10-11T20:17:36.752Z,64.53
2018-10-11T20:20:06.523Z,65.35
2018-10-11T20:22:36.744Z,65.57
2018-10-11T20:25:07.047Z,65.92
2018-10-11T20:27:36.712Z,65.78
2018-10-11T20:30:06.815Z,65.28
2018-10-11T20:32:37.699Z,65.29
2018-10-11T20:35:07.443Z,65.82
2018-10-11T20:37:37.079Z,66.07
2018-10-11T20:40:06.846Z,66.17
2018-10-11T20:42:36.483Z,66.32
2018-10-11T20:45:06.640Z,66.36
2018-10-11T20:47:36.447Z,65.46
2018-10-11T20:50:06.883Z,66.33
2018-10-11T20:52:36.513Z,66.47
2018-10-11T20:55:07.011Z,66.26
2018-10-11T20:57:36.575Z,66.28
2018-10-11T21:00:08.118Z,66.14
2018-10-11T21:02:37.828Z,66.36
2018-10-11T21:05:07.686Z,66.14
2018-10-11T21:07:37.395Z,66.16
2018-10-11T21:10:07.358Z,66.46
2018-10-11T21:12:37.007Z,66.21
2018-10-11T21:15:06.824Z,66.60
2018-10-11T21:17:36.378Z,66.93
2018-10-11T21:20:07.152Z,66.83
2018-10-11T21:22:36.703Z,66.51
2018-10-11T21:25:07.076Z,66.68
2018-10-11T21:27:36.674Z,67.25
2018-10-11T21:30:07.990Z,67.29
2018-10-11T21:32:37.928Z,67.37
2018-10-11T21:35:08.206Z,67.04
2018-10-11T21:37:37.885Z,67.04
2018-10-11T21:40:07.632Z,67.19
2018-10-11T21:42:37.317Z,67.44
2018-10-11T21:45:07.067Z,68.06
2018-10-11T21:47:36.651Z,68.03
2018-10-11T21:50:06.604Z,67.69
2018-10-11T21:52:38.175Z,68.40
2018-10-11T21:55:08.135Z,67.74
2018-10-11T21:57:38.787Z,68.40
2018-10-11T22:00:09.028Z,68.39
2018-10-11T22:02:38.699Z,68.35
2018-10-11T22:05:08.351Z,68.23
2018-10-11T22:07:38.096Z,67.97
2018-10-11T22:10:08.075Z,67.97
2018-10-11T22:12:37.842Z,68.75
2018-10-11T22:15:07.783Z,68.72
2018-10-11T22:17:37.426Z,67.97
2018-10-11T22:20:08.145Z,68.42
2018-10-11T22:22:38.083Z,68.21
2018-10-11T22:25:09.165Z,67.68
2018-10-11T22:27:39.200Z,68.07
2018-10-11T22:30:09.128Z,68.18
2018-10-11T22:32:38.792Z,67.64
2018-10-11T22:35:09.053Z,68.36
2018-10-11T22:37:38.670Z,68.05
2018-10-11T22:40:09.089Z,67.69
2018-10-11T22:42:39.144Z,67.82
2018-10-11T22:45:08.823Z,67.93
2018-10-11T22:47:38.420Z,67.81
2018-10-11T22:50:08.207Z,68.56
2018-10-11T22:52:37.818Z,68.15
2018-10-11T22:55:07.567Z,67.70
2018-10-11T22:57:37.159Z,67.93
2018-10-11T23:00:06.871Z,68.65
2018-10-11T23:02:36.452Z,68.22
2018-10-11T23:05:06.342Z,68.10
2018-10-11T23:07:36.247Z,69.14
2018-10-11T23:10:05.837Z,68.69
2018-10-11T23:12:35.458Z,68.63
2018-10-11T23:15:15.069Z,68.85
2018-10-11T23:17:52.278Z,68.58
2018-10-11T23:20:30.022Z,69.05
2018-10-11T23:23:06.914Z,69.46
2018-10-11T23:25:43.309Z,69.36
2018-10-11T23:28:21.138Z,69.32
2018-10-11T23:30:59.097Z,69.70
2018-10-11T23:33:36.833Z,69.83
2018-10-11T23:36:14.361Z,69.84
2018-10-11T23:38:51.820Z,69.46
2018-10-11T23:41:31.032Z,69.85
2018-10-11T23:44:12.583Z,69.35
2018-10-11T23:46:53.927Z,69.99
2018-10-11T23:49:32.259Z,70.07
2018-10-11T23:52:09.975Z,70.20
2018-10-11T23:54:47.282Z,70.23
2018-10-11T23:57:24.977Z,70.55
